sensor_id;sensor_type;location;lat;lon;timestamp;P1;durP1;ratioP1;P2;durP2;ratioP2
48191;SDS011;33982;47.430;18.912;2022-10-01T00:00:06;15.85;;;10.93;;
48191;SDS011;33982;47.430;18.912;2022-10-01T00:02:36;13.20;;;11.18;;
48191;SDS011;33982;47.430;18.912;2022-10-01T00:05:05;17.20;;;11.80;;
48191;SDS011;33982;47.430;18.912;2022-10-01T00:07:37;16.42;;;11.85;;
48191;SDS011;33982;47.430;18.912;2022-10-01T00:10:06;16.85;;;12.55;;
48191;SDS011;33982;47.430;18.912;2022-10-01T00:12:37;19.62;;;12.10;;
48191;SDS011;33982;47.430;18.912;2022-10-01T00:15:06;16.67;;;12.45;;
48191;SDS011;33982;47.430;18.912;2022-10-01T00:17:39;18.10;;;12.55;;
48191;SDS011;33982;47.430;18.912;2022-10-01T00:20:14;16.97;;;12.27;;
48191;SDS011;33982;47.430;18.912;2022-10-01T00:22:43;16.95;;;12.07;;
48191;SDS011;33982;47.430;18.912;2022-10-01T00:25:15;15.77;;;12.53;;
48191;SDS011;33982;47.430;18.912;2022-10-01T00:27:45;16.80;;;12.63;;
48191;SDS011;33982;47.430;18.912;2022-10-01T00:30:13;17.35;;;11.52;;
48191;SDS011;33982;47.430;18.912;2022-10-01T00:32:41;15.82;;;11.88;;
48191;SDS011;33982;47.430;18.912;2022-10-01T00:35:08;16.20;;;12.33;;
48191;SDS011;33982;47.430;18.912;2022-10-01T00:37:42;16.05;;;12.68;;
48191;SDS011;33982;47.430;18.912;2022-10-01T00:40:20;16.33;;;12.90;;
48191;SDS011;33982;47.430;18.912;2022-10-01T00:42:49;18.58;;;13.40;;
48191;SDS011;33982;47.430;18.912;2022-10-01T00:45:17;18.60;;;13.38;;
48191;SDS011;33982;47.430;18.912;2022-10-01T00:47:53;15.93;;;12.30;;
48191;SDS011;33982;47.430;18.912;2022-10-01T00:50:28;16.08;;;12.00;;
48191;SDS011;33982;47.430;18.912;2022-10-01T00:53:02;17.20;;;12.48;;
48191;SDS011;33982;47.430;18.912;2022-10-01T00:55:33;16.90;;;12.52;;
48191;SDS011;33982;47.430;18.912;2022-10-01T00:58:03;16.62;;;12.70;;
48191;SDS011;33982;47.430;18.912;2022-10-01T01:00:31;16.80;;;12.02;;
48191;SDS011;33982;47.430;18.912;2022-10-01T01:02:58;16.60;;;11.97;;
48191;SDS011;33982;47.430;18.912;2022-10-01T01:05:26;15.93;;;12.57;;
48191;SDS011;33982;47.430;18.912;2022-10-01T01:07:54;17.62;;;13.27;;
48191;SDS011;33982;47.430;18.912;2022-10-01T01:10:35;19.67;;;14.02;;
48191;SDS011;33982;47.430;18.912;2022-10-01T01:13:12;20.12;;;14.48;;
48191;SDS011;33982;47.430;18.912;2022-10-01T01:15:47;19.00;;;14.13;;
48191;SDS011;33982;47.430;18.912;2022-10-01T01:18:47;21.48;;;15.85;;
48191;SDS011;33982;47.430;18.912;2022-10-01T01:26:54;20.52;;;14.20;;
48191;SDS011;33982;47.430;18.912;2022-10-01T01:31:50;21.58;;;13.05;;
48191;SDS011;33982;47.430;18.912;2022-10-01T01:34:28;17.27;;;13.40;;
48191;SDS011;33982;47.430;18.912;2022-10-01T01:36:59;16.83;;;13.32;;
48191;SDS011;33982;47.430;18.912;2022-10-01T01:39:30;16.95;;;13.60;;
48191;SDS011;33982;47.430;18.912;2022-10-01T01:41:59;19.45;;;14.30;;
48191;SDS011;33982;47.430;18.912;2022-10-01T01:44:31;19.25;;;14.65;;
48191;SDS011;33982;47.430;18.912;2022-10-01T01:47:01;17.83;;;13.35;;
48191;SDS011;33982;47.430;18.912;2022-10-01T01:49:34;17.23;;;13.77;;
48191;SDS011;33982;47.430;18.912;2022-10-01T01:52:12;17.58;;;12.75;;
48191;SDS011;33982;47.430;18.912;2022-10-01T01:54:42;17.92;;;12.93;;
48191;SDS011;33982;47.430;18.912;2022-10-01T01:57:15;15.68;;;12.43;;
48191;SDS011;33982;47.430;18.912;2022-10-01T01:59:56;18.35;;;13.10;;
48191;SDS011;33982;47.430;18.912;2022-10-01T02:02:27;16.20;;;12.45;;
48191;SDS011;33982;47.430;18.912;2022-10-01T02:05:05;17.25;;;12.70;;
48191;SDS011;33982;47.430;18.912;2022-10-01T02:13:40;18.12;;;13.25;;
48191;SDS011;33982;47.430;18.912;2022-10-01T02:16:17;17.05;;;12.82;;
48191;SDS011;33982;47.430;18.912;2022-10-01T02:19:00;21.10;;;14.02;;
48191;SDS011;33982;47.430;18.912;2022-10-01T02:21:40;18.87;;;14.40;;
48191;SDS011;33982;47.430;18.912;2022-10-01T02:24:26;16.70;;;13.40;;
48191;SDS011;33982;47.430;18.912;2022-10-01T02:27:02;19.05;;;14.10;;
48191;SDS011;33982;47.430;18.912;2022-10-01T02:29:31;17.10;;;13.20;;
48191;SDS011;33982;47.430;18.912;2022-10-01T02:32:01;18.08;;;13.52;;
48191;SDS011;33982;47.430;18.912;2022-10-01T02:34:30;16.95;;;13.52;;
48191;SDS011;33982;47.430;18.912;2022-10-01T02:36:59;17.17;;;13.23;;
48191;SDS011;33982;47.430;18.912;2022-10-01T02:39:29;17.65;;;12.75;;
48191;SDS011;33982;47.430;18.912;2022-10-01T02:41:59;16.33;;;12.45;;
48191;SDS011;33982;47.430;18.912;2022-10-01T02:44:32;17.10;;;12.32;;
48191;SDS011;33982;47.430;18.912;2022-10-01T02:47:07;18.85;;;14.63;;
48191;SDS011;33982;47.430;18.912;2022-10-01T02:49:56;17.27;;;12.68;;
48191;SDS011;33982;47.430;18.912;2022-10-01T02:52:39;20.00;;;14.02;;
48191;SDS011;33982;47.430;18.912;2022-10-01T02:55:10;16.62;;;13.02;;
48191;SDS011;33982;47.430;18.912;2022-10-01T02:57:48;18.00;;;13.30;;
48191;SDS011;33982;47.430;18.912;2022-10-01T03:00:17;17.30;;;13.53;;
48191;SDS011;33982;47.430;18.912;2022-10-01T03:02:48;17.45;;;13.80;;
48191;SDS011;33982;47.430;18.912;2022-10-01T03:05:16;18.15;;;13.50;;
48191;SDS011;33982;47.430;18.912;2022-10-01T03:07:44;17.40;;;12.63;;
48191;SDS011;33982;47.430;18.912;2022-10-01T03:10:15;17.87;;;13.00;;
48191;SDS011;33982;47.430;18.912;2022-10-01T03:12:43;16.70;;;12.77;;
48191;SDS011;33982;47.430;18.912;2022-10-01T03:15:14;17.35;;;12.77;;
48191;SDS011;33982;47.430;18.912;2022-10-01T03:17:45;17.23;;;12.55;;
48191;SDS011;33982;47.430;18.912;2022-10-01T03:20:19;16.60;;;12.63;;
48191;SDS011;33982;47.430;18.912;2022-10-01T03:22:50;15.85;;;12.32;;
48191;SDS011;33982;47.430;18.912;2022-10-01T03:25:23;15.70;;;12.20;;
48191;SDS011;33982;47.430;18.912;2022-10-01T03:28:00;17.52;;;11.88;;
48191;SDS011;33982;47.430;18.912;2022-10-01T03:30:28;16.43;;;11.63;;
48191;SDS011;33982;47.430;18.912;2022-10-01T03:32:56;17.15;;;12.30;;
48191;SDS011;33982;47.430;18.912;2022-10-01T03:35:35;16.15;;;11.65;;
48191;SDS011;33982;47.430;18.912;2022-10-01T03:38:03;17.53;;;12.87;;
48191;SDS011;33982;47.430;18.912;2022-10-01T03:40:30;16.48;;;12.18;;
48191;SDS011;33982;47.430;18.912;2022-10-01T03:43:00;17.27;;;11.73;;
48191;SDS011;33982;47.430;18.912;2022-10-01T03:45:28;16.37;;;11.65;;
48191;SDS011;33982;47.430;18.912;2022-10-01T03:47:56;15.23;;;11.20;;
48191;SDS011;33982;47.430;18.912;2022-10-01T03:50:24;17.17;;;11.63;;
48191;SDS011;33982;47.430;18.912;2022-10-01T03:52:52;13.32;;;10.80;;
48191;SDS011;33982;47.430;18.912;2022-10-01T03:55:19;17.25;;;10.95;;
48191;SDS011;33982;47.430;18.912;2022-10-01T03:57:48;15.60;;;11.23;;
48191;SDS011;33982;47.430;18.912;2022-10-01T04:00:17;15.47;;;11.77;;
48191;SDS011;33982;47.430;18.912;2022-10-01T04:02:48;13.98;;;10.40;;
48191;SDS011;33982;47.430;18.912;2022-10-01T04:05:18;13.62;;;10.90;;
48191;SDS011;33982;47.430;18.912;2022-10-01T04:07:48;16.05;;;10.30;;
48191;SDS011;33982;47.430;18.912;2022-10-01T04:10:23;12.93;;;9.70;;
48191;SDS011;33982;47.430;18.912;2022-10-01T04:12:51;12.73;;;9.95;;
48191;SDS011;33982;47.430;18.912;2022-10-01T04:15:20;12.50;;;9.50;;
48191;SDS011;33982;47.430;18.912;2022-10-01T04:17:48;12.73;;;9.77;;
48191;SDS011;33982;47.430;18.912;2022-10-01T04:20:16;13.30;;;9.93;;
48191;SDS011;33982;47.430;18.912;2022-10-01T04:22:44;13.68;;;9.82;;
48191;SDS011;33982;47.430;18.912;2022-10-01T04:25:15;12.55;;;9.57;;
48191;SDS011;33982;47.430;18.912;2022-10-01T04:27:53;13.40;;;10.05;;
48191;SDS011;33982;47.430;18.912;2022-10-01T04:30:26;14.32;;;10.27;;
48191;SDS011;33982;47.430;18.912;2022-10-01T04:32:56;12.05;;;10.18;;
48191;SDS011;33982;47.430;18.912;2022-10-01T04:35:24;13.93;;;10.63;;
48191;SDS011;33982;47.430;18.912;2022-10-01T04:37:57;13.32;;;10.38;;
48191;SDS011;33982;47.430;18.912;2022-10-01T04:40:33;12.97;;;9.90;;
48191;SDS011;33982;47.430;18.912;2022-10-01T04:43:06;13.35;;;10.23;;
48191;SDS011;33982;47.430;18.912;2022-10-01T04:45:36;12.30;;;9.88;;
48191;SDS011;33982;47.430;18.912;2022-10-01T04:48:04;15.07;;;11.07;;
48191;SDS011;33982;47.430;18.912;2022-10-01T04:50:33;14.43;;;10.77;;
48191;SDS011;33982;47.430;18.912;2022-10-01T04:53:02;15.15;;;10.30;;
48191;SDS011;33982;47.430;18.912;2022-10-01T04:55:32;15.05;;;10.10;;
48191;SDS011;33982;47.430;18.912;2022-10-01T04:58:00;16.25;;;10.90;;
48191;SDS011;33982;47.430;18.912;2022-10-01T05:00:28;16.10;;;11.00;;
48191;SDS011;33982;47.430;18.912;2022-10-01T05:03:01;14.90;;;11.18;;
48191;SDS011;33982;47.430;18.912;2022-10-01T05:05:29;14.32;;;10.52;;
48191;SDS011;33982;47.430;18.912;2022-10-01T05:07:59;15.10;;;11.15;;
48191;SDS011;33982;47.430;18.912;2022-10-01T05:10:28;14.65;;;11.43;;
48191;SDS011;33982;47.430;18.912;2022-10-01T05:12:56;15.00;;;11.45;;
48191;SDS011;33982;47.430;18.912;2022-10-01T05:15:24;15.60;;;10.73;;
48191;SDS011;33982;47.430;18.912;2022-10-01T05:17:54;14.02;;;10.18;;
48191;SDS011;33982;47.430;18.912;2022-10-01T05:20:32;14.10;;;10.70;;
48191;SDS011;33982;47.430;18.912;2022-10-01T05:23:14;14.98;;;10.48;;
48191;SDS011;33982;47.430;18.912;2022-10-01T05:25:48;13.85;;;9.95;;
48191;SDS011;33982;47.430;18.912;2022-10-01T05:28:21;13.82;;;10.18;;
48191;SDS011;33982;47.430;18.912;2022-10-01T05:31:03;13.55;;;10.07;;
48191;SDS011;33982;47.430;18.912;2022-10-01T05:33:35;13.77;;;9.80;;
48191;SDS011;33982;47.430;18.912;2022-10-01T05:36:06;14.63;;;10.23;;
48191;SDS011;33982;47.430;18.912;2022-10-01T05:38:40;13.97;;;10.60;;
48191;SDS011;33982;47.430;18.912;2022-10-01T05:41:08;14.05;;;10.68;;
48191;SDS011;33982;47.430;18.912;2022-10-01T05:43:38;15.55;;;11.00;;
48191;SDS011;33982;47.430;18.912;2022-10-01T05:46:11;14.07;;;10.73;;
48191;SDS011;33982;47.430;18.912;2022-10-01T05:48:40;15.27;;;11.07;;
48191;SDS011;33982;47.430;18.912;2022-10-01T05:51:09;17.23;;;11.77;;
48191;SDS011;33982;47.430;18.912;2022-10-01T05:53:38;15.80;;;11.95;;
48191;SDS011;33982;47.430;18.912;2022-10-01T05:56:07;17.30;;;12.63;;
48191;SDS011;33982;47.430;18.912;2022-10-01T05:58:35;17.30;;;12.18;;
48191;SDS011;33982;47.430;18.912;2022-10-01T06:01:07;16.00;;;11.98;;
48191;SDS011;33982;47.430;18.912;2022-10-01T06:03:39;15.35;;;11.88;;
48191;SDS011;33982;47.430;18.912;2022-10-01T06:06:08;16.23;;;11.80;;
48191;SDS011;33982;47.430;18.912;2022-10-01T06:08:37;16.25;;;12.10;;
48191;SDS011;33982;47.430;18.912;2022-10-01T06:11:07;16.95;;;12.27;;
48191;SDS011;33982;47.430;18.912;2022-10-01T06:13:37;18.37;;;12.82;;
48191;SDS011;33982;47.430;18.912;2022-10-01T06:16:13;16.45;;;12.40;;
48191;SDS011;33982;47.430;18.912;2022-10-01T06:18:42;17.15;;;12.15;;
48191;SDS011;33982;47.430;18.912;2022-10-01T06:21:10;16.50;;;11.93;;
48191;SDS011;33982;47.430;18.912;2022-10-01T06:23:38;16.12;;;12.45;;
48191;SDS011;33982;47.430;18.912;2022-10-01T06:26:06;16.92;;;12.73;;
48191;SDS011;33982;47.430;18.912;2022-10-01T06:28:35;17.08;;;12.48;;
48191;SDS011;33982;47.430;18.912;2022-10-01T06:31:04;16.40;;;12.57;;
48191;SDS011;33982;47.430;18.912;2022-10-01T06:33:32;15.70;;;12.30;;
48191;SDS011;33982;47.430;18.912;2022-10-01T06:36:12;29.35;;;15.23;;
48191;SDS011;33982;47.430;18.912;2022-10-01T06:38:42;67.70;;;38.50;;
48191;SDS011;33982;47.430;18.912;2022-10-01T06:41:11;39.85;;;23.08;;
48191;SDS011;33982;47.430;18.912;2022-10-01T06:43:39;24.75;;;17.20;;
48191;SDS011;33982;47.430;18.912;2022-10-01T06:46:10;17.55;;;11.98;;
48191;SDS011;33982;47.430;18.912;2022-10-01T06:48:43;17.98;;;12.52;;
48191;SDS011;33982;47.430;18.912;2022-10-01T06:51:16;14.75;;;11.10;;
48191;SDS011;33982;47.430;18.912;2022-10-01T06:54:12;15.77;;;11.57;;
48191;SDS011;33982;47.430;18.912;2022-10-01T06:56:46;16.27;;;10.88;;
48191;SDS011;33982;47.430;18.912;2022-10-01T06:59:18;15.57;;;11.27;;
48191;SDS011;33982;47.430;18.912;2022-10-01T07:01:49;15.35;;;11.43;;
48191;SDS011;33982;47.430;18.912;2022-10-01T07:04:26;16.07;;;11.37;;
48191;SDS011;33982;47.430;18.912;2022-10-01T07:06:56;15.15;;;11.60;;
48191;SDS011;33982;47.430;18.912;2022-10-01T07:09:25;15.55;;;11.57;;
48191;SDS011;33982;47.430;18.912;2022-10-01T07:11:58;14.73;;;11.35;;
48191;SDS011;33982;47.430;18.912;2022-10-01T07:14:29;15.67;;;11.70;;
48191;SDS011;33982;47.430;18.912;2022-10-01T07:17:03;15.13;;;11.77;;
48191;SDS011;33982;47.430;18.912;2022-10-01T07:19:31;16.75;;;12.07;;
48191;SDS011;33982;47.430;18.912;2022-10-01T07:22:02;15.80;;;11.40;;
48191;SDS011;33982;47.430;18.912;2022-10-01T07:24:34;17.02;;;12.30;;
48191;SDS011;33982;47.430;18.912;2022-10-01T07:27:06;15.43;;;11.05;;
48191;SDS011;33982;47.430;18.912;2022-10-01T07:29:34;15.50;;;11.80;;
48191;SDS011;33982;47.430;18.912;2022-10-01T07:32:05;16.83;;;11.93;;
48191;SDS011;33982;47.430;18.912;2022-10-01T07:34:37;16.52;;;12.45;;
48191;SDS011;33982;47.430;18.912;2022-10-01T07:37:09;19.80;;;12.88;;
48191;SDS011;33982;47.430;18.912;2022-10-01T07:39:37;19.12;;;12.88;;
48191;SDS011;33982;47.430;18.912;2022-10-01T07:42:06;19.00;;;14.23;;
48191;SDS011;33982;47.430;18.912;2022-10-01T07:44:37;17.03;;;13.30;;
48191;SDS011;33982;47.430;18.912;2022-10-01T07:47:06;17.80;;;13.43;;
48191;SDS011;33982;47.430;18.912;2022-10-01T07:49:53;16.70;;;12.57;;
48191;SDS011;33982;47.430;18.912;2022-10-01T07:52:27;18.08;;;13.60;;
48191;SDS011;33982;47.430;18.912;2022-10-01T07:55:04;17.42;;;12.73;;
48191;SDS011;33982;47.430;18.912;2022-10-01T07:57:38;19.00;;;13.83;;
48191;SDS011;33982;47.430;18.912;2022-10-01T08:00:12;17.95;;;13.98;;
48191;SDS011;33982;47.430;18.912;2022-10-01T08:02:46;17.05;;;13.02;;
48191;SDS011;33982;47.430;18.912;2022-10-01T08:05:28;19.08;;;14.23;;
48191;SDS011;33982;47.430;18.912;2022-10-01T08:08:03;17.08;;;14.02;;
48191;SDS011;33982;47.430;18.912;2022-10-01T08:10:33;20.85;;;14.77;;
48191;SDS011;33982;47.430;18.912;2022-10-01T08:13:11;21.42;;;15.32;;
48191;SDS011;33982;47.430;18.912;2022-10-01T08:15:46;18.90;;;14.07;;
48191;SDS011;33982;47.430;18.912;2022-10-01T08:18:50;21.35;;;15.95;;
48191;SDS011;33982;47.430;18.912;2022-10-01T08:21:22;21.17;;;16.23;;
48191;SDS011;33982;47.430;18.912;2022-10-01T08:23:53;22.37;;;17.02;;
48191;SDS011;33982;47.430;18.912;2022-10-01T08:26:22;23.85;;;17.37;;
48191;SDS011;33982;47.430;18.912;2022-10-01T08:28:54;22.40;;;16.70;;
48191;SDS011;33982;47.430;18.912;2022-10-01T08:31:29;22.35;;;17.20;;
48191;SDS011;33982;47.430;18.912;2022-10-01T08:34:03;22.25;;;16.75;;
48191;SDS011;33982;47.430;18.912;2022-10-01T08:36:34;23.87;;;17.47;;
48191;SDS011;33982;47.430;18.912;2022-10-01T08:39:02;23.85;;;18.02;;
48191;SDS011;33982;47.430;18.912;2022-10-01T08:44:13;24.92;;;18.12;;
48191;SDS011;33982;47.430;18.912;2022-10-01T08:46:48;24.77;;;17.93;;
48191;SDS011;33982;47.430;18.912;2022-10-01T08:55:10;25.88;;;18.83;;
48191;SDS011;33982;47.430;18.912;2022-10-01T08:57:53;25.10;;;18.83;;
48191;SDS011;33982;47.430;18.912;2022-10-01T09:00:29;25.67;;;18.92;;
48191;SDS011;33982;47.430;18.912;2022-10-01T09:02:59;25.37;;;18.55;;
48191;SDS011;33982;47.430;18.912;2022-10-01T09:17:16;25.02;;;18.00;;
48191;SDS011;33982;47.430;18.912;2022-10-01T09:25:43;27.30;;;17.85;;
48191;SDS011;33982;47.430;18.912;2022-10-01T09:28:13;24.90;;;18.40;;
48191;SDS011;33982;47.430;18.912;2022-10-01T09:30:43;25.47;;;17.87;;
48191;SDS011;33982;47.430;18.912;2022-10-01T09:33:19;26.58;;;18.08;;
48191;SDS011;33982;47.430;18.912;2022-10-01T09:41:02;26.60;;;19.65;;
48191;SDS011;33982;47.430;18.912;2022-10-01T09:43:31;26.98;;;19.80;;
48191;SDS011;33982;47.430;18.912;2022-10-01T09:45:59;27.62;;;20.05;;
48191;SDS011;33982;47.430;18.912;2022-10-01T09:48:35;28.90;;;19.92;;
48191;SDS011;33982;47.430;18.912;2022-10-01T09:51:18;28.92;;;20.70;;
48191;SDS011;33982;47.430;18.912;2022-10-01T09:56:44;27.13;;;20.20;;
48191;SDS011;33982;47.430;18.912;2022-10-01T10:02:15;26.65;;;20.15;;
48191;SDS011;33982;47.430;18.912;2022-10-01T10:05:39;26.02;;;19.05;;
48191;SDS011;33982;47.430;18.912;2022-10-01T10:08:00;24.93;;;17.50;;
48191;SDS011;33982;47.430;18.912;2022-10-01T10:10:31;22.70;;;17.90;;
48191;SDS011;33982;47.430;18.912;2022-10-01T10:15:52;20.00;;;15.77;;
48191;SDS011;33982;47.430;18.912;2022-10-01T10:18:30;20.33;;;15.98;;
48191;SDS011;33982;47.430;18.912;2022-10-01T10:21:05;22.27;;;16.52;;
48191;SDS011;33982;47.430;18.912;2022-10-01T10:24:00;21.37;;;16.45;;
48191;SDS011;33982;47.430;18.912;2022-10-01T10:26:35;20.17;;;15.45;;
48191;SDS011;33982;47.430;18.912;2022-10-01T10:29:23;18.42;;;15.05;;
48191;SDS011;33982;47.430;18.912;2022-10-01T10:32:18;17.10;;;13.90;;
48191;SDS011;33982;47.430;18.912;2022-10-01T10:35:06;17.02;;;14.05;;
48191;SDS011;33982;47.430;18.912;2022-10-01T10:37:49;16.83;;;13.32;;
48191;SDS011;33982;47.430;18.912;2022-10-01T10:40:27;15.07;;;12.18;;
48191;SDS011;33982;47.430;18.912;2022-10-01T10:43:01;13.45;;;10.98;;
48191;SDS011;33982;47.430;18.912;2022-10-01T10:45:35;12.30;;;10.13;;
48191;SDS011;33982;47.430;18.912;2022-10-01T10:48:10;11.23;;;8.80;;
48191;SDS011;33982;47.430;18.912;2022-10-01T10:50:44;12.00;;;9.50;;
48191;SDS011;33982;47.430;18.912;2022-10-01T10:53:24;11.27;;;9.17;;
48191;SDS011;33982;47.430;18.912;2022-10-01T10:55:55;11.67;;;8.77;;
48191;SDS011;33982;47.430;18.912;2022-10-01T10:58:34;11.33;;;9.00;;
48191;SDS011;33982;47.430;18.912;2022-10-01T11:03:58;12.53;;;8.20;;
48191;SDS011;33982;47.430;18.912;2022-10-01T11:06:35;11.68;;;8.40;;
48191;SDS011;33982;47.430;18.912;2022-10-01T11:09:06;11.20;;;8.27;;
48191;SDS011;33982;47.430;18.912;2022-10-01T11:23:38;11.12;;;7.50;;
48191;SDS011;33982;47.430;18.912;2022-10-01T11:29:00;9.23;;;7.10;;
48191;SDS011;33982;47.430;18.912;2022-10-01T11:45:50;10.05;;;6.53;;
48191;SDS011;33982;47.430;18.912;2022-10-01T11:48:32;10.32;;;5.85;;
48191;SDS011;33982;47.430;18.912;2022-10-01T11:51:12;9.85;;;6.10;;
48191;SDS011;33982;47.430;18.912;2022-10-01T11:53:55;8.20;;;5.45;;
48191;SDS011;33982;47.430;18.912;2022-10-01T11:56:30;8.20;;;5.68;;
48191;SDS011;33982;47.430;18.912;2022-10-01T11:59:36;7.97;;;5.72;;
48191;SDS011;33982;47.430;18.912;2022-10-01T12:02:13;10.20;;;6.43;;
48191;SDS011;33982;47.430;18.912;2022-10-01T12:04:55;8.98;;;5.80;;
48191;SDS011;33982;47.430;18.912;2022-10-01T12:07:31;7.35;;;5.28;;
48191;SDS011;33982;47.430;18.912;2022-10-01T12:10:19;7.85;;;5.15;;
48191;SDS011;33982;47.430;18.912;2022-10-01T12:16:46;7.82;;;5.35;;
48191;SDS011;33982;47.430;18.912;2022-10-01T12:19:12;8.85;;;5.28;;
48191;SDS011;33982;47.430;18.912;2022-10-01T12:21:46;8.82;;;5.40;;
48191;SDS011;33982;47.430;18.912;2022-10-01T12:24:25;9.00;;;5.30;;
48191;SDS011;33982;47.430;18.912;2022-10-01T12:52:23;7.30;;;4.53;;
48191;SDS011;33982;47.430;18.912;2022-10-01T13:03:54;8.38;;;4.93;;
48191;SDS011;33982;47.430;18.912;2022-10-01T13:09:34;9.13;;;4.90;;
48191;SDS011;33982;47.430;18.912;2022-10-01T13:12:27;7.62;;;4.40;;
48191;SDS011;33982;47.430;18.912;2022-10-01T13:15:20;7.05;;;4.22;;
48191;SDS011;33982;47.430;18.912;2022-10-01T13:18:09;6.87;;;4.00;;
48191;SDS011;33982;47.430;18.912;2022-10-01T13:38:16;37.10;;;24.50;;
48191;SDS011;33982;47.430;18.912;2022-10-01T13:41:17;6.65;;;4.70;;
48191;SDS011;33982;47.430;18.912;2022-10-01T13:43:52;11.13;;;6.83;;
48191;SDS011;33982;47.430;18.912;2022-10-01T13:46:29;9.57;;;6.13;;
48191;SDS011;33982;47.430;18.912;2022-10-01T13:49:12;15.65;;;9.05;;
48191;SDS011;33982;47.430;18.912;2022-10-01T13:52:04;26.17;;;17.93;;
48191;SDS011;33982;47.430;18.912;2022-10-01T13:54:49;15.15;;;11.02;;
48191;SDS011;33982;47.430;18.912;2022-10-01T13:57:26;17.73;;;13.18;;
48191;SDS011;33982;47.430;18.912;2022-10-01T14:00:00;33.65;;;21.80;;
48191;SDS011;33982;47.430;18.912;2022-10-01T14:02:36;20.47;;;12.80;;
48191;SDS011;33982;47.430;18.912;2022-10-01T14:06:07;16.00;;;10.67;;
48191;SDS011;33982;47.430;18.912;2022-10-01T14:09:17;14.48;;;10.43;;
48191;SDS011;33982;47.430;18.912;2022-10-01T14:11:57;17.70;;;13.45;;
48191;SDS011;33982;47.430;18.912;2022-10-01T14:15:00;23.80;;;16.60;;
48191;SDS011;33982;47.430;18.912;2022-10-01T14:19:04;16.45;;;10.43;;
48191;SDS011;33982;47.430;18.912;2022-10-01T14:30:38;16.67;;;11.75;;
48191;SDS011;33982;47.430;18.912;2022-10-01T14:33:22;15.02;;;10.65;;
48191;SDS011;33982;47.430;18.912;2022-10-01T14:38:42;14.30;;;10.57;;
48191;SDS011;33982;47.430;18.912;2022-10-01T14:41:19;16.52;;;11.02;;
48191;SDS011;33982;47.430;18.912;2022-10-01T14:43:49;16.40;;;11.35;;
48191;SDS011;33982;47.430;18.912;2022-10-01T14:46:19;15.40;;;11.77;;
48191;SDS011;33982;47.430;18.912;2022-10-01T14:48:55;16.60;;;11.85;;
48191;SDS011;33982;47.430;18.912;2022-10-01T14:51:34;15.27;;;10.63;;
48191;SDS011;33982;47.430;18.912;2022-10-01T14:54:09;15.35;;;11.05;;
48191;SDS011;33982;47.430;18.912;2022-10-01T14:56:41;15.20;;;11.32;;
48191;SDS011;33982;47.430;18.912;2022-10-01T14:59:15;17.17;;;11.88;;
48191;SDS011;33982;47.430;18.912;2022-10-01T15:01:53;16.15;;;11.55;;
48191;SDS011;33982;47.430;18.912;2022-10-01T15:04:30;16.30;;;11.38;;
48191;SDS011;33982;47.430;18.912;2022-10-01T15:07:03;16.60;;;11.57;;
48191;SDS011;33982;47.430;18.912;2022-10-01T15:09:31;16.80;;;11.98;;
48191;SDS011;33982;47.430;18.912;2022-10-01T15:12:00;16.90;;;11.50;;
48191;SDS011;33982;47.430;18.912;2022-10-01T15:14:29;17.05;;;11.10;;
48191;SDS011;33982;47.430;18.912;2022-10-01T15:17:01;16.92;;;10.30;;
48191;SDS011;33982;47.430;18.912;2022-10-01T15:19:36;16.67;;;10.15;;
48191;SDS011;33982;47.430;18.912;2022-10-01T15:22:13;14.50;;;9.40;;
48191;SDS011;33982;47.430;18.912;2022-10-01T15:24:45;12.30;;;8.27;;
48191;SDS011;33982;47.430;18.912;2022-10-01T15:27:21;13.80;;;8.70;;
48191;SDS011;33982;47.430;18.912;2022-10-01T15:29:55;15.57;;;8.18;;
48191;SDS011;33982;47.430;18.912;2022-10-01T15:32:26;12.18;;;7.87;;
48191;SDS011;33982;47.430;18.912;2022-10-01T15:34:59;12.20;;;7.20;;
48191;SDS011;33982;47.430;18.912;2022-10-01T15:37:29;10.23;;;6.57;;
48191;SDS011;33982;47.430;18.912;2022-10-01T15:40:02;10.53;;;6.77;;
48191;SDS011;33982;47.430;18.912;2022-10-01T15:42:34;9.18;;;6.35;;
48191;SDS011;33982;47.430;18.912;2022-10-01T15:47:48;9.30;;;5.80;;
48191;SDS011;33982;47.430;18.912;2022-10-01T15:50:27;8.88;;;5.80;;
48191;SDS011;33982;47.430;18.912;2022-10-01T15:53:20;9.65;;;6.75;;
48191;SDS011;33982;47.430;18.912;2022-10-01T15:55:53;8.63;;;5.87;;
48191;SDS011;33982;47.430;18.912;2022-10-01T15:58:30;9.38;;;6.05;;
48191;SDS011;33982;47.430;18.912;2022-10-01T16:03:52;10.25;;;6.70;;
48191;SDS011;33982;47.430;18.912;2022-10-01T16:06:48;10.45;;;7.07;;
48191;SDS011;33982;47.430;18.912;2022-10-01T16:09:25;11.20;;;7.20;;
48191;SDS011;33982;47.430;18.912;2022-10-01T16:12:29;11.05;;;7.82;;
48191;SDS011;33982;47.430;18.912;2022-10-01T16:15:30;10.93;;;7.47;;
48191;SDS011;33982;47.430;18.912;2022-10-01T16:18:00;11.20;;;7.00;;
48191;SDS011;33982;47.430;18.912;2022-10-01T16:20:38;9.57;;;6.30;;
48191;SDS011;33982;47.430;18.912;2022-10-01T16:23:32;9.63;;;6.83;;
48191;SDS011;33982;47.430;18.912;2022-10-01T16:31:44;9.25;;;5.18;;
48191;SDS011;33982;47.430;18.912;2022-10-01T16:34:26;8.63;;;4.93;;
48191;SDS011;33982;47.430;18.912;2022-10-01T16:36:59;7.62;;;4.55;;
48191;SDS011;33982;47.430;18.912;2022-10-01T16:39:34;7.45;;;4.62;;
48191;SDS011;33982;47.430;18.912;2022-10-01T16:42:05;9.10;;;5.70;;
48191;SDS011;33982;47.430;18.912;2022-10-01T16:45:00;10.20;;;6.30;;
48191;SDS011;33982;47.430;18.912;2022-10-01T16:47:42;10.17;;;6.00;;
48191;SDS011;33982;47.430;18.912;2022-10-01T16:50:15;11.12;;;5.97;;
48191;SDS011;33982;47.430;18.912;2022-10-01T16:52:47;11.25;;;6.57;;
48191;SDS011;33982;47.430;18.912;2022-10-01T16:55:24;11.07;;;6.75;;
48191;SDS011;33982;47.430;18.912;2022-10-01T16:58:09;10.30;;;6.20;;
48191;SDS011;33982;47.430;18.912;2022-10-01T17:00:57;13.25;;;8.45;;
48191;SDS011;33982;47.430;18.912;2022-10-01T17:10:56;6.13;;;4.00;;
48191;SDS011;33982;47.430;18.912;2022-10-01T17:13:50;7.10;;;4.73;;
48191;SDS011;33982;47.430;18.912;2022-10-01T17:16:38;10.50;;;6.63;;
48191;SDS011;33982;47.430;18.912;2022-10-01T17:19:18;10.27;;;6.50;;
48191;SDS011;33982;47.430;18.912;2022-10-01T17:22:17;10.90;;;6.60;;
48191;SDS011;33982;47.430;18.912;2022-10-01T17:24:54;12.23;;;7.47;;
48191;SDS011;33982;47.430;18.912;2022-10-01T17:27:24;14.87;;;9.20;;
48191;SDS011;33982;47.430;18.912;2022-10-01T17:30:18;11.20;;;7.00;;
48191;SDS011;33982;47.430;18.912;2022-10-01T17:33:03;8.75;;;5.60;;
48191;SDS011;33982;47.430;18.912;2022-10-01T17:35:43;9.88;;;6.20;;
48191;SDS011;33982;47.430;18.912;2022-10-01T17:38:20;9.88;;;6.37;;
48191;SDS011;33982;47.430;18.912;2022-10-01T17:40:58;11.32;;;8.13;;
48191;SDS011;33982;47.430;18.912;2022-10-01T17:43:29;16.80;;;12.50;;
48191;SDS011;33982;47.430;18.912;2022-10-01T17:46:00;15.00;;;12.70;;
48191;SDS011;33982;47.430;18.912;2022-10-01T17:48:35;11.10;;;8.38;;
48191;SDS011;33982;47.430;18.912;2022-10-01T17:51:09;11.52;;;8.00;;
48191;SDS011;33982;47.430;18.912;2022-10-01T17:53:47;12.02;;;8.45;;